createdAt,value
2024-04-13T00:00:04.960Z,12.38
2024-04-13T00:00:35.280Z,12.38
2024-04-13T00:01:07.571Z,12.38
2024-04-13T00:01:38.585Z,12.38
2024-04-13T00:02:09.775Z,12.38
2024-04-13T00:02:26.861Z,12.38
2024-04-13T00:02:58.161Z,12.27
2024-04-13T00:03:30.200Z,12.27
2024-04-13T00:04:02.277Z,12.27
2024-04-13T00:04:33.951Z,12.27
2024-04-13T00:05:08.032Z,12.27
2024-04-13T00:05:38.351Z,12.27
2024-04-13T00:06:09.678Z,12.27
2024-04-13T00:06:26.687Z,12.27
2024-04-13T00:06:57.798Z,12.27
2024-04-13T00:07:29.555Z,12.27
2024-04-13T00:07:47.287Z,12.27
2024-04-13T00:08:17.857Z,12.27
2024-04-13T00:08:39.354Z,12.27
2024-04-13T00:09:06.934Z,12.27
2024-04-13T00:09:38.196Z,12.27
2024-04-13T00:10:11.124Z,12.27
2024-04-13T00:10:27.361Z,12.27
2024-04-13T00:10:58.522Z,12.22
2024-04-13T00:11:29.619Z,12.22
2024-04-13T00:12:01.903Z,12.22
2024-04-13T00:12:33.685Z,12.22
2024-04-13T00:13:06.596Z,12.22
2024-04-13T00:13:37.998Z,12.22
2024-04-13T00:14:09.971Z,12.22
2024-04-13T00:14:26.723Z,12.22
2024-04-13T00:14:58.415Z,12.22
2024-04-13T00:15:30.975Z,12.22
2024-04-13T00:16:01.893Z,12.22
2024-04-13T00:16:33.856Z,12.22
2024-04-13T00:17:06.692Z,12.22
2024-04-13T00:17:38.015Z,12.22
2024-04-13T00:18:10.137Z,12.22
2024-04-13T00:18:29.006Z,12.22
2024-04-13T00:18:57.745Z,12.22
2024-04-13T00:19:29.688Z,12.22
2024-04-13T00:20:04.738Z,12.11
2024-04-13T00:20:34.454Z,12.11
2024-04-13T00:21:08.096Z,12.11
2024-04-13T00:21:38.083Z,12.11
2024-04-13T00:22:09.884Z,12.11
2024-04-13T00:22:27.373Z,12.11
2024-04-13T00:22:57.942Z,12.11
2024-04-13T00:23:29.555Z,12.11
2024-04-13T00:24:01.931Z,12.11
2024-04-13T00:24:33.854Z,12.11
2024-04-13T00:25:07.934Z,12.22
2024-04-13T00:25:38.016Z,12.22
2024-04-13T00:26:09.691Z,12.22
2024-04-13T00:26:27.020Z,12.22
2024-04-13T00:26:57.941Z,12.22
2024-04-13T00:27:29.611Z,12.22
2024-04-13T00:28:02.409Z,12.22
2024-04-13T00:28:34.195Z,12.22
2024-04-13T00:29:08.899Z,12.22
2024-04-13T00:29:37.789Z,12.22
2024-04-13T00:30:11.655Z,12.22
2024-04-13T00:30:26.659Z,12.22
2024-04-13T00:30:59.388Z,12.22
2024-04-13T00:31:29.763Z,12.22
2024-04-13T00:31:46.381Z,12.22
2024-04-13T00:32:17.781Z,12.27
2024-04-13T00:32:40.315Z,12.27
2024-04-13T00:33:06.709Z,12.27
2024-04-13T00:33:37.857Z,12.27
2024-04-13T00:34:10.181Z,12.27
2024-04-13T00:34:27.520Z,12.27
2024-04-13T00:34:58.067Z,12.27
2024-04-13T00:35:31.184Z,12.38
2024-04-13T00:36:02.481Z,12.38
2024-04-13T00:36:34.710Z,12.38
2024-04-13T00:37:06.645Z,12.38
2024-04-13T00:37:38.278Z,12.38
2024-04-13T00:38:09.758Z,12.38
2024-04-13T00:38:26.757Z,12.38
2024-04-13T00:38:57.892Z,12.50
2024-04-13T00:39:29.770Z,12.50
2024-04-13T00:39:46.572Z,12.50
2024-04-13T00:40:19.058Z,12.50
2024-04-13T00:40:39.950Z,12.50
2024-04-13T00:41:07.433Z,12.50
2024-04-13T00:41:38.156Z,12.50
2024-04-13T00:42:09.885Z,12.50
2024-04-13T00:42:26.704Z,12.50
2024-04-13T00:42:57.849Z,12.38
2024-04-13T00:43:29.587Z,12.38
2024-04-13T00:43:46.112Z,12.38
2024-04-13T00:44:18.522Z,12.38
2024-04-13T00:44:40.109Z,12.38
2024-04-13T00:45:09.654Z,12.38
2024-04-13T00:45:37.894Z,12.38
2024-04-13T00:46:09.811Z,12.38
2024-04-13T00:46:26.494Z,12.38
2024-04-13T00:46:57.780Z,12.27
2024-04-13T00:47:29.848Z,12.27
2024-04-13T00:48:02.265Z,12.27
2024-04-13T00:48:33.964Z,12.27
2024-04-13T00:49:06.827Z,12.27
2024-04-13T00:49:38.370Z,12.27
2024-04-13T00:50:11.570Z,12.27
2024-04-13T00:50:26.547Z,12.27
2024-04-13T00:50:58.733Z,12.27
2024-04-13T00:51:29.692Z,12.22
2024-04-13T00:52:02.031Z,12.22
2024-04-13T00:52:33.868Z,12.22
2024-04-13T00:53:07.017Z,12.22
2024-04-13T00:53:38.337Z,12.22
2024-04-13T00:54:10.041Z,12.22
2024-04-13T00:54:26.479Z,12.22
2024-04-13T00:54:57.921Z,12.11
2024-04-13T00:55:30.524Z,12.11
2024-04-13T00:55:46.672Z,12.11
2024-04-13T00:56:18.044Z,12.11
2024-04-13T00:56:38.984Z,12.11
2024-04-13T00:57:06.548Z,12.11
2024-04-13T00:57:38.237Z,12.11
2024-04-13T00:58:09.649Z,12.11
2024-04-13T00:58:26.994Z,12.11
2024-04-13T00:58:57.942Z,12.11
2024-04-13T00:59:29.507Z,12.11
2024-04-13T00:59:46.761Z,12.11
2024-04-13T01:00:19.856Z,12.11
2024-04-13T01:00:39.348Z,12.11
2024-04-13T01:01:08.157Z,12.11
2024-04-13T01:01:37.753Z,12.11
2024-04-13T01:02:09.772Z,12.11
2024-04-13T01:02:26.789Z,12.11
2024-04-13T01:02:57.897Z,12.11
2024-04-13T01:03:29.741Z,12.11
2024-04-13T01:04:02.177Z,12.11
2024-04-13T01:04:33.722Z,12.11
2024-04-13T01:05:08.087Z,12.11
2024-04-13T01:05:37.937Z,12.11
2024-04-13T01:06:10.773Z,12.11
2024-04-13T01:06:28.625Z,12.11
2024-04-13T01:06:59.695Z,12.11
2024-04-13T01:07:29.682Z,12.11
2024-04-13T01:07:46.861Z,12.11
2024-04-13T01:08:17.877Z,12.11
2024-04-13T01:08:39.160Z,12.11
2024-04-13T01:09:06.561Z,12.11
2024-04-13T01:09:38.167Z,12.11
2024-04-13T01:10:11.137Z,12.11
2024-04-13T01:10:39.307Z,12.11
2024-04-13T01:10:59.917Z,12.11
2024-04-13T01:11:29.594Z,12.11
2024-04-13T01:11:46.954Z,12.11
2024-04-13T01:12:17.796Z,12.11
2024-04-13T01:12:39.464Z,12.11
2024-04-13T01:13:06.712Z,12.11
2024-04-13T01:13:37.735Z,12.11
2024-04-13T01:14:09.766Z,12.11
2024-04-13T01:14:26.639Z,12.11
2024-04-13T01:14:58.401Z,12.11
2024-04-13T01:15:31.092Z,12.11
2024-04-13T01:15:46.766Z,12.11
2024-04-13T01:16:17.774Z,12.11
2024-04-13T01:16:39.191Z,12.11
2024-04-13T01:17:06.557Z,12.11
2024-04-13T01:17:37.892Z,12.11
2024-04-13T01:18:10.066Z,12.11
2024-04-13T01:18:27.108Z,12.11
2024-04-13T01:18:58.606Z,12.11
2024-04-13T01:19:29.659Z,12.11
2024-04-13T01:19:46.669Z,12.11
2024-04-13T01:20:18.528Z,12.11
2024-04-13T01:20:39.318Z,12.11
2024-04-13T01:21:06.608Z,12.11
2024-04-13T01:21:38.049Z,12.11
2024-04-13T01:22:09.753Z,12.11
2024-04-13T01:22:26.615Z,12.11
2024-04-13T01:22:58.603Z,12.11
2024-04-13T01:23:30.128Z,12.11
2024-04-13T01:23:46.485Z,12.11
2024-04-13T01:24:17.757Z,12.11
2024-04-13T01:24:40.742Z,12.11
2024-04-13T01:25:08.572Z,12.11
2024-04-13T01:25:37.843Z,12.11
2024-04-13T01:26:09.728Z,12.11
2024-04-13T01:26:26.557Z,12.11
2024-04-13T01:26:58.974Z,12.11
2024-04-13T01:27:29.886Z,12.11
2024-04-13T01:27:46.511Z,12.11
2024-04-13T01:28:17.718Z,12.11
2024-04-13T01:28:38.930Z,12.11
2024-04-13T01:29:07.275Z,12.11
2024-04-13T01:29:38.086Z,12.11
2024-04-13T01:30:11.494Z,12.11
2024-04-13T01:30:26.814Z,12.11
2024-04-13T01:30:59.178Z,12.11
2024-04-13T01:31:29.587Z,12.11
2024-04-13T01:31:46.483Z,12.11
2024-04-13T01:32:17.771Z,12.11
2024-04-13T01:32:39.263Z,12.11
2024-04-13T01:33:06.979Z,12.11
2024-04-13T01:33:38.256Z,12.11
2024-04-13T01:34:10.346Z,12.11
2024-04-13T01:34:26.642Z,12.11
2024-04-13T01:34:58.222Z,12.11
2024-04-13T01:35:30.445Z,12.11
2024-04-13T01:35:46.483Z,12.11
2024-04-13T01:36:17.759Z,12.11
2024-04-13T01:36:39.007Z,12.11
2024-04-13T01:37:06.852Z,12.11
2024-04-13T01:37:37.811Z,12.11
2024-04-13T01:38:09.688Z,12.11
2024-04-13T01:38:26.501Z,12.11
2024-04-13T01:38:59.424Z,12.11
2024-04-13T01:39:29.619Z,12.11
2024-04-13T01:39:46.882Z,12.11
2024-04-13T01:40:19.121Z,12.11
2024-04-13T01:40:39.093Z,12.11
2024-04-13T01:41:07.008Z,12.11
2024-04-13T01:41:38.277Z,12.11
2024-04-13T01:42:09.927Z,12.11
2024-04-13T01:42:26.797Z,12.11
2024-04-13T01:42:58.330Z,12.11
2024-04-13T01:43:29.768Z,12.11
2024-04-13T01:43:46.602Z,12.11
2024-04-13T01:44:17.800Z,12.11
2024-04-13T01:44:39.051Z,12.11
2024-04-13T01:45:10.164Z,12.11
2024-04-13T01:45:38.209Z,12.11
2024-04-13T01:46:10.657Z,12.11
2024-04-13T01:46:27.360Z,12.11
2024-04-13T01:46:57.942Z,12.11
2024-04-13T01:47:29.636Z,12.11
2024-04-13T01:47:46.702Z,12.11
2024-04-13T01:48:17.870Z,12.11
2024-04-13T01:48:40.114Z,12.11
2024-04-13T01:49:06.754Z,12.11
2024-04-13T01:49:37.950Z,12.11
2024-04-13T01:50:10.778Z,12.11
2024-04-13T01:50:26.818Z,12.11
2024-04-13T01:50:58.668Z,12.11
2024-04-13T01:51:30.419Z,12.11
2024-04-13T01:51:46.185Z,12.11
2024-04-13T01:52:19.050Z,12.11
2024-04-13T01:52:39.794Z,12.11
2024-04-13T01:53:06.826Z,12.11
2024-04-13T01:53:37.807Z,12.11
2024-04-13T01:54:09.719Z,12.11
2024-04-13T01:54:26.894Z,12.11
2024-04-13T01:54:58.003Z,12.00
2024-04-13T01:55:30.510Z,12.00
2024-04-13T01:55:46.579Z,12.00
2024-04-13T01:56:17.858Z,12.00
2024-04-13T01:56:39.183Z,12.00
2024-04-13T01:57:07.409Z,12.00
2024-04-13T01:57:37.887Z,11.88
2024-04-13T01:58:09.677Z,11.88
2024-04-13T01:58:28.144Z,11.88
2024-04-13T01:58:57.801Z,11.88
2024-04-13T01:59:30.197Z,11.88
2024-04-13T01:59:46.531Z,11.88
2024-04-13T02:00:19.151Z,11.77
2024-04-13T02:00:39.290Z,11.77
2024-04-13T02:01:08.791Z,11.77
2024-04-13T02:01:37.810Z,11.77
2024-04-13T02:02:09.923Z,11.77
2024-04-13T02:02:29.503Z,11.77
2024-04-13T02:02:58.181Z,11.77
2024-04-13T02:03:29.605Z,11.77
2024-04-13T02:03:47.317Z,11.77
2024-04-13T02:04:17.852Z,11.77
2024-04-13T02:04:39.048Z,11.77
2024-04-13T02:05:09.113Z,11.77
2024-04-13T02:05:38.511Z,11.77
2024-04-13T02:06:09.879Z,11.77
2024-04-13T02:06:26.736Z,11.77
2024-04-13T02:06:58.085Z,11.77
2024-04-13T02:07:29.516Z,11.77
2024-04-13T02:07:46.191Z,11.77
2024-04-13T02:08:18.261Z,11.77
2024-04-13T02:08:38.909Z,11.77
2024-04-13T02:09:06.843Z,11.72
2024-04-13T02:09:37.828Z,11.72
2024-04-13T02:10:11.202Z,11.72
2024-04-13T02:10:26.569Z,11.72
2024-04-13T02:10:58.643Z,11.72
2024-04-13T02:11:30.081Z,11.72
2024-04-13T02:11:47.287Z,11.72
2024-04-13T02:12:17.977Z,11.72
2024-04-13T02:12:39.338Z,11.72
2024-04-13T02:13:06.676Z,11.61
2024-04-13T02:13:37.996Z,11.61
2024-04-13T02:14:26.628Z,11.61
2024-04-13T02:14:58.288Z,11.61
2024-04-13T02:15:31.204Z,11.61
2024-04-13T02:15:46.120Z,11.61
2024-04-13T02:16:18.193Z,11.61
2024-04-13T02:16:38.962Z,11.61
2024-04-13T02:17:06.845Z,11.61
2024-04-13T02:17:38.077Z,11.61
2024-04-13T02:18:09.944Z,11.61
2024-04-13T02:18:26.674Z,11.61
2024-04-13T02:18:58.536Z,11.61
2024-04-13T02:19:29.908Z,11.61
2024-04-13T02:19:46.504Z,11.61
2024-04-13T02:20:19.247Z,11.61
2024-04-13T02:20:39.217Z,11.61
2024-04-13T02:21:06.677Z,11.61
2024-04-13T02:21:37.904Z,11.61
2024-04-13T02:22:09.636Z,11.61
2024-04-13T02:22:26.704Z,11.61
2024-04-13T02:22:58.177Z,11.72
2024-04-13T02:23:30.155Z,11.72
2024-04-13T02:23:46.151Z,11.72
2024-04-13T02:24:17.725Z,11.72
2024-04-13T02:24:39.814Z,11.72
2024-04-13T02:25:08.887Z,11.72
2024-04-13T02:25:37.913Z,11.72
2024-04-13T02:26:09.587Z,11.72
2024-04-13T02:26:26.942Z,11.72
2024-04-13T02:26:58.043Z,11.72
2024-04-13T02:27:29.829Z,11.72
2024-04-13T02:27:46.717Z,11.72
2024-04-13T02:28:17.642Z,11.72
2024-04-13T02:28:39.069Z,11.72
2024-04-13T02:29:06.949Z,11.72
2024-04-13T02:29:38.307Z,11.72
2024-04-13T02:30:11.089Z,11.72
2024-04-13T02:30:26.949Z,11.72
2024-04-13T02:30:58.665Z,11.72
2024-04-13T02:31:29.827Z,11.72
2024-04-13T02:31:47.043Z,11.72
2024-04-13T02:32:18.655Z,11.72
2024-04-13T02:32:39.426Z,11.72
2024-04-13T02:33:07.112Z,11.72
2024-04-13T02:33:37.859Z,11.72
2024-04-13T02:34:09.987Z,11.72
2024-04-13T02:34:26.629Z,11.72
2024-04-13T02:34:57.846Z,11.72
2024-04-13T02:35:30.342Z,11.72
2024-04-13T02:35:47.573Z,11.72
2024-04-13T02:36:17.709Z,11.72
2024-04-13T02:36:39.117Z,11.72
2024-04-13T02:37:06.930Z,11.72
2024-04-13T02:37:37.817Z,11.72
2024-04-13T02:38:09.666Z,11.72
2024-04-13T02:38:26.601Z,11.72
2024-04-13T02:38:57.815Z,11.72
2024-04-13T02:39:29.634Z,11.72
2024-04-13T02:39:47.284Z,11.72
2024-04-13T02:40:18.731Z,11.72
2024-04-13T02:40:39.145Z,11.72
2024-04-13T02:41:06.684Z,11.72
2024-04-13T02:41:37.696Z,11.72
2024-04-13T02:42:09.650Z,11.72
2024-04-13T02:42:27.306Z,11.72
2024-04-13T02:42:57.891Z,11.72
2024-04-13T02:43:29.791Z,11.72
2024-04-13T02:43:46.584Z,11.72
2024-04-13T02:44:17.910Z,11.72
2024-04-13T02:44:39.527Z,11.72
2024-04-13T02:45:08.613Z,11.72
2024-04-13T02:45:38.083Z,11.72
2024-04-13T02:46:10.355Z,11.77
2024-04-13T02:46:26.631Z,11.77
2024-04-13T02:46:57.800Z,11.77
2024-04-13T02:47:29.543Z,11.77
2024-04-13T02:47:46.747Z,11.77
2024-04-13T02:48:17.790Z,11.77
2024-04-13T02:48:40.172Z,11.77
2024-04-13T02:49:07.413Z,11.77
2024-04-13T02:49:37.775Z,11.77
2024-04-13T02:50:10.548Z,11.77
2024-04-13T02:50:26.755Z,11.77
2024-04-13T02:50:58.694Z,11.77
2024-04-13T02:51:29.926Z,11.77
2024-04-13T02:51:46.431Z,11.88
2024-04-13T02:52:17.712Z,11.88
2024-04-13T02:52:39.369Z,11.88
2024-04-13T02:53:06.796Z,11.88
2024-04-13T02:53:38.260Z,11.88
2024-04-13T02:54:10.515Z,11.88
2024-04-13T02:54:37.114Z,11.88
2024-04-13T02:54:58.041Z,11.88
2024-04-13T02:55:30.650Z,11.88
2024-04-13T02:55:46.500Z,11.88
2024-04-13T02:56:17.826Z,11.88
2024-04-13T02:56:39.111Z,11.88
2024-04-13T02:57:06.853Z,11.88
2024-04-13T02:57:37.932Z,11.77
2024-04-13T02:58:09.653Z,11.77
2024-04-13T02:58:26.780Z,11.77
2024-04-13T02:58:58.096Z,11.77
2024-04-13T02:59:29.753Z,11.77
2024-04-13T03:00:04.643Z,11.77
2024-04-13T03:00:33.790Z,11.77
2024-04-13T03:01:07.671Z,11.77
2024-04-13T03:01:37.928Z,11.77
2024-04-13T03:02:12.939Z,11.77
2024-04-13T03:02:26.644Z,11.77
2024-04-13T03:02:58.824Z,11.88
2024-04-13T03:03:29.701Z,11.88
2024-04-13T03:03:47.306Z,11.88
2024-04-13T03:04:17.763Z,11.88
2024-04-13T03:04:39.147Z,11.88
2024-04-13T03:05:08.346Z,11.88
2024-04-13T03:05:38.163Z,11.88
2024-04-13T03:06:09.639Z,11.88
2024-04-13T03:06:26.934Z,11.88
2024-04-13T03:06:58.379Z,11.88
2024-04-13T03:07:30.117Z,11.88
2024-04-13T03:07:46.582Z,11.88
2024-04-13T03:08:17.549Z,11.88
2024-04-13T03:08:39.761Z,11.88
2024-04-13T03:09:07.930Z,11.88
2024-04-13T03:09:37.938Z,11.88
2024-04-13T03:10:11.836Z,11.77
2024-04-13T03:10:26.750Z,11.77
2024-04-13T03:10:58.745Z,11.77
2024-04-13T03:11:29.710Z,11.77
2024-04-13T03:11:47.458Z,11.77
2024-04-13T03:12:17.646Z,11.77
2024-04-13T03:12:39.213Z,11.77
2024-04-13T03:13:06.989Z,11.77
2024-04-13T03:13:38.650Z,11.77
2024-04-13T03:14:09.720Z,11.77
2024-04-13T03:14:26.636Z,11.77
2024-04-13T03:14:58.188Z,11.77
2024-04-13T03:15:30.810Z,11.77
2024-04-13T03:15:46.550Z,11.77
2024-04-13T03:16:18.665Z,11.77
2024-04-13T03:16:39.112Z,11.77
2024-04-13T03:17:06.546Z,11.77
2024-04-13T03:17:37.893Z,11.77
2024-04-13T03:18:09.974Z,11.77
2024-04-13T03:18:27.015Z,11.77
2024-04-13T03:18:57.984Z,11.77
2024-04-13T03:19:29.497Z,11.77
2024-04-13T03:19:46.588Z,11.77
2024-04-13T03:20:19.314Z,11.77
2024-04-13T03:20:39.654Z,11.77
2024-04-13T03:21:06.482Z,11.77
2024-04-13T03:21:38.189Z,11.77
2024-04-13T03:22:10.020Z,11.77
2024-04-13T03:22:28.046Z,11.77
2024-04-13T03:22:58.108Z,11.72
2024-04-13T03:23:30.130Z,11.72
2024-04-13T03:23:46.824Z,11.72
2024-04-13T03:24:17.947Z,11.72
2024-04-13T03:24:39.578Z,11.72
2024-04-13T03:25:08.170Z,11.72
2024-04-13T03:25:37.763Z,11.72
2024-04-13T03:26:09.648Z,11.72
2024-04-13T03:26:27.478Z,11.72
2024-04-13T03:26:58.079Z,11.72
2024-04-13T03:27:29.899Z,11.72
2024-04-13T03:27:46.714Z,11.72
2024-04-13T03:28:18.015Z,11.72
2024-04-13T03:28:39.171Z,11.72
2024-04-13T03:29:06.647Z,11.72
2024-04-13T03:29:38.300Z,11.72
2024-04-13T03:30:11.023Z,11.72
2024-04-13T03:30:26.807Z,11.72
2024-04-13T03:30:58.998Z,11.72
2024-04-13T03:31:30.035Z,11.72
2024-04-13T03:31:46.565Z,11.72
2024-04-13T03:32:17.944Z,11.72
2024-04-13T03:32:39.391Z,11.72
2024-04-13T03:33:06.778Z,11.72
2024-04-13T03:33:37.861Z,11.72
2024-04-13T03:34:09.859Z,11.72
2024-04-13T03:34:26.641Z,11.72
2024-04-13T03:34:58.092Z,11.72
2024-04-13T03:35:30.260Z,11.72
2024-04-13T03:35:47.279Z,11.72
2024-04-13T03:36:17.763Z,11.72
2024-04-13T03:36:39.572Z,11.77
2024-04-13T03:37:06.634Z,11.77
2024-04-13T03:37:37.764Z,11.77
2024-04-13T03:38:10.322Z,11.77
2024-04-13T03:38:26.931Z,11.77
2024-04-13T03:38:58.012Z,11.72
2024-04-13T03:39:29.593Z,11.72
2024-04-13T03:39:47.122Z,11.72
2024-04-13T03:40:18.510Z,11.72
2024-04-13T03:40:39.531Z,11.72
2024-04-13T03:41:06.511Z,11.72
2024-04-13T03:41:37.903Z,11.72
2024-04-13T03:42:10.106Z,11.72
2024-04-13T03:42:26.621Z,11.72
2024-04-13T03:42:58.026Z,11.72
2024-04-13T03:43:29.464Z,11.72
2024-04-13T03:43:46.781Z,11.61
2024-04-13T03:44:17.682Z,11.61
2024-04-13T03:44:39.079Z,11.61
2024-04-13T03:45:08.436Z,11.61
2024-04-13T03:45:38.002Z,11.61
2024-04-13T03:46:09.929Z,11.61
2024-04-13T03:46:36.888Z,11.61
2024-04-13T03:46:58.196Z,11.61
2024-04-13T03:47:29.567Z,11.61
2024-04-13T03:47:46.671Z,11.61
2024-04-13T03:48:18.006Z,11.61
2024-04-13T03:48:40.296Z,11.61
2024-04-13T03:49:06.501Z,11.61
2024-04-13T03:49:37.861Z,11.61
2024-04-13T03:50:11.404Z,11.61
2024-04-13T03:50:26.566Z,11.50
2024-04-13T03:50:58.878Z,11.50
2024-04-13T03:51:30.341Z,11.50
2024-04-13T03:51:46.584Z,11.50
2024-04-13T03:52:17.657Z,11.50
2024-04-13T03:52:39.760Z,11.50
2024-04-13T03:53:06.671Z,11.50
2024-04-13T03:53:37.878Z,11.50
2024-04-13T03:54:10.055Z,11.50
2024-04-13T03:54:26.665Z,11.50
2024-04-13T03:54:57.862Z,11.50
2024-04-13T03:55:30.381Z,11.50
2024-04-13T03:56:01.837Z,11.50
2024-04-13T03:56:33.870Z,11.50
2024-04-13T03:57:09.496Z,11.50
2024-04-13T03:57:38.928Z,11.50
2024-04-13T03:58:09.977Z,11.50
2024-04-13T03:58:26.678Z,11.50
2024-04-13T03:58:58.726Z,11.50
2024-04-13T03:59:29.780Z,11.50
2024-04-13T03:59:46.647Z,11.50
2024-04-13T04:00:20.485Z,11.50
2024-04-13T04:00:40.026Z,11.50
2024-04-13T04:01:07.812Z,11.50
2024-04-13T04:01:38.540Z,11.50
2024-04-13T04:02:10.061Z,11.50
2024-04-13T04:02:26.729Z,11.50
2024-04-13T04:02:57.971Z,11.50
2024-04-13T04:03:29.729Z,11.50
2024-04-13T04:03:47.347Z,11.50
2024-04-13T04:04:17.912Z,11.50
2024-04-13T04:04:39.325Z,11.50
2024-04-13T04:05:08.198Z,11.50
2024-04-13T04:05:38.716Z,11.50
2024-04-13T04:06:09.820Z,11.50
2024-04-13T04:06:26.652Z,11.50
2024-04-13T04:06:58.150Z,11.50
2024-04-13T04:07:30.879Z,11.50
2024-04-13T04:07:46.525Z,11.50
2024-04-13T04:08:17.932Z,11.50
2024-04-13T04:08:39.283Z,11.50
2024-04-13T04:09:07.307Z,11.50
2024-04-13T04:09:38.464Z,11.50
2024-04-13T04:10:10.870Z,11.50
2024-04-13T04:10:26.706Z,11.50
2024-04-13T04:10:58.754Z,11.50
2024-04-13T04:11:29.859Z,11.50
2024-04-13T04:11:46.383Z,11.50
2024-04-13T04:12:17.665Z,11.50
2024-04-13T04:12:39.412Z,11.50
2024-04-13T04:13:06.738Z,11.50
2024-04-13T04:13:39.114Z,11.50
2024-04-13T04:14:09.756Z,11.50
2024-04-13T04:14:27.030Z,11.50
2024-04-13T04:14:58.388Z,11.50
2024-04-13T04:15:31.178Z,11.50
2024-04-13T04:15:47.670Z,11.50
2024-04-13T04:16:17.802Z,11.50
2024-04-13T04:16:39.696Z,11.50
2024-04-13T04:17:06.768Z,11.50
2024-04-13T04:17:38.326Z,11.50
2024-04-13T04:18:10.324Z,11.50
2024-04-13T04:18:26.903Z,11.50
2024-04-13T04:18:58.574Z,11.50
2024-04-13T04:19:29.793Z,11.50
2024-04-13T04:19:48.598Z,11.50
2024-04-13T04:20:18.774Z,11.50
2024-04-13T04:20:39.606Z,11.50
2024-04-13T04:21:06.771Z,11.50
2024-04-13T04:21:38.433Z,11.50
2024-04-13T04:22:09.870Z,11.50
2024-04-13T04:22:27.084Z,11.50
2024-04-13T04:22:58.499Z,11.50
2024-04-13T04:23:29.846Z,11.50
2024-04-13T04:23:46.709Z,11.50
2024-04-13T04:24:18.333Z,11.38
2024-04-13T04:24:40.089Z,11.38
2024-04-13T04:25:08.191Z,11.38
2024-04-13T04:25:38.446Z,11.38
2024-04-13T04:26:10.098Z,11.38
2024-04-13T04:26:27.029Z,11.38
2024-04-13T04:26:59.577Z,11.38
2024-04-13T04:27:30.415Z,11.38
2024-04-13T04:27:47.337Z,11.38
2024-04-13T04:28:17.863Z,11.38
2024-04-13T04:28:39.601Z,11.38
2024-04-13T04:29:07.158Z,11.38
2024-04-13T04:29:38.101Z,11.38
2024-04-13T04:30:12.111Z,11.38
2024-04-13T04:30:26.948Z,11.38
2024-04-13T04:30:58.962Z,11.38
2024-04-13T04:31:29.870Z,11.50
2024-04-13T04:31:46.682Z,11.50
2024-04-13T04:32:17.918Z,11.50
2024-04-13T04:32:39.421Z,11.50
2024-04-13T04:33:07.619Z,11.50
2024-04-13T04:33:38.751Z,11.50
2024-04-13T04:34:11.348Z,11.50
2024-04-13T04:34:26.896Z,11.50
2024-04-13T04:34:58.047Z,11.50
2024-04-13T04:35:30.580Z,11.50
2024-04-13T04:36:02.049Z,11.61
2024-04-13T04:36:34.085Z,11.61
2024-04-13T04:37:06.747Z,11.61
2024-04-13T04:37:38.082Z,11.61
2024-04-13T04:38:10.627Z,11.61
2024-04-13T04:38:37.161Z,11.61
2024-04-13T04:38:58.237Z,11.61
2024-04-13T04:39:30.101Z,11.61
2024-04-13T04:39:47.073Z,11.61
2024-04-13T04:40:21.879Z,11.61
2024-04-13T04:40:39.634Z,11.72
2024-04-13T04:41:06.769Z,11.72
2024-04-13T04:41:39.162Z,11.72
2024-04-13T04:42:10.070Z,11.61
2024-04-13T04:42:27.022Z,11.61
2024-04-13T04:42:58.137Z,11.61
2024-04-13T04:43:29.891Z,11.61
2024-04-13T04:43:47.302Z,11.61
2024-04-13T04:44:17.922Z,11.61
2024-04-13T04:44:39.516Z,11.61
2024-04-13T04:45:09.251Z,11.61
2024-04-13T04:45:38.598Z,11.61
2024-04-13T04:46:10.068Z,11.61
2024-04-13T04:46:27.831Z,11.61
2024-04-13T04:46:58.349Z,11.61
2024-04-13T04:47:31.128Z,11.61
2024-04-13T04:47:47.009Z,11.61
2024-04-13T04:48:19.152Z,11.61
2024-04-13T04:48:39.782Z,11.61
2024-04-13T04:49:07.381Z,11.61
2024-04-13T04:49:38.205Z,11.61
2024-04-13T04:50:10.897Z,11.72
2024-04-13T04:50:26.881Z,11.72
2024-04-13T04:50:58.984Z,11.72
2024-04-13T04:51:29.912Z,11.72
2024-04-13T04:52:02.049Z,11.72
2024-04-13T04:52:33.805Z,11.72
2024-04-13T04:53:06.704Z,11.72
2024-04-13T04:53:38.245Z,11.72
2024-04-13T04:54:09.931Z,11.72
2024-04-13T04:54:27.346Z,11.72
2024-04-13T04:54:58.160Z,11.72
2024-04-13T04:55:30.801Z,11.72
2024-04-13T04:56:02.070Z,11.72
2024-04-13T04:56:33.743Z,11.72
2024-04-13T04:57:06.774Z,11.72
2024-04-13T04:57:38.509Z,11.72
2024-04-13T04:58:10.071Z,11.72
2024-04-13T04:58:26.923Z,11.72
2024-04-13T04:58:58.298Z,11.61
2024-04-13T04:59:29.896Z,11.61
2024-04-13T04:59:46.660Z,11.61
2024-04-13T05:00:19.392Z,11.61
2024-04-13T05:00:39.788Z,11.61
2024-04-13T05:01:07.980Z,11.50
2024-04-13T05:01:38.237Z,11.50
2024-04-13T05:02:10.211Z,11.50
2024-04-13T05:02:27.617Z,11.50
2024-04-13T05:02:58.260Z,11.50
2024-04-13T05:03:29.780Z,11.50
2024-04-13T05:03:47.064Z,11.50
2024-04-13T05:04:17.795Z,11.50
2024-04-13T05:04:39.454Z,11.50
2024-04-13T05:05:08.315Z,11.50
2024-04-13T05:05:38.049Z,11.50
2024-04-13T05:06:10.277Z,11.50
2024-04-13T05:06:26.854Z,11.50
2024-04-13T05:06:58.955Z,11.50
2024-04-13T05:07:30.827Z,11.50
2024-04-13T05:07:49.979Z,11.50
2024-04-13T05:08:18.311Z,11.50
2024-04-13T05:08:39.953Z,11.50
2024-04-13T05:09:07.071Z,11.50
2024-04-13T05:09:38.366Z,11.50
2024-04-13T05:10:11.373Z,11.50
2024-04-13T05:10:26.843Z,11.50
2024-04-13T05:10:58.871Z,11.61
2024-04-13T05:11:29.874Z,11.61
2024-04-13T05:11:47.580Z,11.61
2024-04-13T05:12:18.223Z,11.61
2024-04-13T05:12:39.818Z,11.61
2024-04-13T05:13:08.043Z,11.61
2024-04-13T05:13:38.124Z,11.61
2024-04-13T05:14:13.448Z,11.61
2024-04-13T05:14:27.083Z,11.61
2024-04-13T05:14:58.399Z,11.61
2024-04-13T05:15:30.922Z,11.61
2024-04-13T05:15:46.924Z,11.61
2024-04-13T05:16:17.877Z,11.61
2024-04-13T05:16:39.325Z,11.61
2024-04-13T05:17:07.384Z,11.61
2024-04-13T05:17:38.184Z,11.61
2024-04-13T05:18:10.115Z,11.61
2024-04-13T05:18:27.384Z,11.61
2024-04-13T05:18:58.150Z,11.61
2024-04-13T05:19:29.952Z,11.61
2024-04-13T05:19:47.047Z,11.61
2024-04-13T05:20:19.188Z,11.61
2024-04-13T05:20:39.656Z,11.61
2024-04-13T05:21:06.978Z,11.61
2024-04-13T05:21:38.077Z,11.61
2024-04-13T05:22:10.551Z,11.61
2024-04-13T05:22:26.891Z,11.61
2024-04-13T05:22:57.897Z,11.61
2024-04-13T05:23:29.735Z,11.61
2024-04-13T05:23:46.649Z,11.61
2024-04-13T05:24:17.998Z,11.61
2024-04-13T05:24:39.535Z,11.61
2024-04-13T05:25:07.775Z,11.61
2024-04-13T05:25:38.262Z,11.61
2024-04-13T05:26:09.927Z,11.61
2024-04-13T05:26:28.193Z,11.61
2024-04-13T05:26:58.041Z,11.61
2024-04-13T05:27:30.711Z,11.61
2024-04-13T05:27:47.405Z,11.61
2024-04-13T05:28:17.984Z,11.61
2024-04-13T05:28:39.299Z,11.61
2024-04-13T05:29:06.914Z,11.50
2024-04-13T05:29:38.392Z,11.50
2024-04-13T05:30:12.144Z,11.50
2024-04-13T05:30:37.084Z,11.50
2024-04-13T05:30:59.536Z,11.50
2024-04-13T05:31:30.140Z,11.50
2024-04-13T05:31:47.343Z,11.50
2024-04-13T05:32:17.913Z,11.50
2024-04-13T05:32:39.743Z,11.50
2024-04-13T05:33:07.593Z,11.50
2024-04-13T05:33:40.014Z,11.50
2024-04-13T05:34:09.890Z,11.50
2024-04-13T05:34:26.947Z,11.50
2024-04-13T05:34:58.090Z,11.50
2024-04-13T05:35:30.527Z,11.50
2024-04-13T05:35:47.143Z,11.50
2024-04-13T05:36:18.448Z,11.50
2024-04-13T05:36:39.786Z,11.50
2024-04-13T05:37:06.821Z,11.50
2024-04-13T05:37:38.391Z,11.50
2024-04-13T05:38:10.249Z,11.50
2024-04-13T05:38:27.399Z,11.50
2024-04-13T05:38:58.051Z,11.38
2024-04-13T05:39:30.137Z,11.38
2024-04-13T05:39:47.364Z,11.38
2024-04-13T05:40:19.165Z,11.38
2024-04-13T05:40:39.666Z,11.38
2024-04-13T05:41:06.606Z,11.50
2024-04-13T05:41:38.067Z,11.50
2024-04-13T05:42:09.962Z,11.50
2024-04-13T05:42:27.481Z,11.50
2024-04-13T05:42:58.226Z,11.50
2024-04-13T05:43:29.771Z,11.50
2024-04-13T05:44:01.759Z,11.50
2024-04-13T05:44:34.239Z,11.50
2024-04-13T05:45:08.965Z,11.50
2024-04-13T05:45:38.441Z,11.50
2024-04-13T05:46:10.288Z,11.50
2024-04-13T05:46:27.585Z,11.50
2024-04-13T05:46:59.524Z,11.50
2024-04-13T05:47:30.669Z,11.61
2024-04-13T05:47:47.562Z,11.61
2024-04-13T05:48:17.953Z,11.61
2024-04-13T05:48:40.175Z,11.61
2024-04-13T05:49:06.992Z,11.61
2024-04-13T05:49:38.022Z,11.61
2024-04-13T05:50:11.754Z,11.72
2024-04-13T05:50:27.171Z,11.72
2024-04-13T05:51:00.470Z,11.72